Thunder radar more information blitzortung!


Radar de pluja more information rain snow radar


Visita la nostra xarxa de llocs de meteo:

Template documentation
and downloads

And another site



No particular awareness of the weather is required.    There are no Weather-warnings

Pagina Historial Weather Underground text

Diari Resum Juliol 13, 2017 Unitats:  Imperial    Mètric   Tant
« Previous Dia
SegĂźent Dia »
Diari Setmana Mensual Anual Personalitzada
  Maxima: Minima: Media:
Temperatura: TemperatureC °F 21.3 °F 27.4 °F
Punt de rosada: DewpointC °F 18.7 °F 20 °F
Humitat: Humidity % 52 % 65 %
Wind Speed: WindSpeedKMH mph 0.0 mph 8 mph
RĂ fegues de vent: WindSpeedGustKMH mph - -
Vent:- - South
Pression baro: PressurehPa in 1012.8 in -
Precipitacions: 0.0 in    
Historical Graphs
 
 
Dades de taula per Juliol 13, 2017
Temps Temperatura Punt de rosada Pression baro Vent Wind Speed RĂ fegues de vent Humitat Rainfall Rate (Hourly)
TemperatureC °F DewpointC °F PressurehPa in Calm     Humidity % HourlyPrecipMM in
00:03 24.1 °F 19.6 °F 1017.8 in NE 3.9 mph 3.9 mph 76 % 0.0 in
00:05 22.0 °F 19.2 °F 1017.8 in Calm     84 % 0.0 in
00:15 22.0 °F 19.2 °F 1017.8 in Calm     84 % 0.0 in
00:25 22.0 °F 19.3 °F 1017.8 in Calm     85 % 0.0 in
00:35 21.9 °F 19.3 °F 1017.8 in Calm     85 % 0.0 in
00:45 21.7 °F 19.1 °F 1017.8 in Calm     85 % 0.0 in
00:55 21.5 °F 18.9 °F 1017.8 in Calm   1.6 mph 85 % 0.0 in
01:05 21.4 °F 18.8 °F 1017.8 in West 3.2 mph 3.2 mph 85 % 0.0 in
01:15 21.3 °F 18.7 °F 1017.8 in WSW 1.6 mph 3.2 mph 85 % 0.0 in
01:25 21.3 °F 18.9 °F 1017.8 in SW 1.6 mph 3.2 mph 86 % 0.0 in
01:35 21.3 °F 18.9 °F 1017.8 in Calm   3.2 mph 86 % 0.0 in
01:45 21.4 °F 18.9 °F 1016.8 in Calm   1.6 mph 86 % 0.0 in
01:55 21.4 °F 19.2 °F 1016.8 in Calm     87 % 0.0 in
02:05 21.3 °F 18.9 °F 1017.8 in North 1.6 mph 3.2 mph 86 % 0.0 in
02:15 21.5 °F 19.1 °F 1016.8 in NE 1.6 mph 1.6 mph 86 % 0.0 in
02:25 21.8 °F 19.2 °F 1016.8 in NE 3.2 mph 4.8 mph 85 % 0.0 in
02:35 21.9 °F 19.3 °F 1017.8 in NE 1.6 mph 3.2 mph 85 % 0.0 in
02:45 21.9 °F 19.1 °F 1017.8 in ENE 3.2 mph 4.8 mph 84 % 0.0 in
02:55 21.9 °F 19.1 °F 1017.8 in ENE 1.6 mph 3.2 mph 84 % 0.0 in
03:05 22.0 °F 19.2 °F 1017.8 in Calm   3.2 mph 84 % 0.0 in
03:15 22.1 °F 19.1 °F 1016.8 in SW 3.2 mph 4.8 mph 83 % 0.0 in
03:25 22.1 °F 19.3 °F 1016.8 in SW 1.6 mph 3.2 mph 84 % 0.0 in
03:35 22.2 °F 19.4 °F 1017.8 in SW 1.6 mph 3.2 mph 84 % 0.0 in
03:45 22.6 °F 19.6 °F 1017.8 in SW 1.6 mph 3.2 mph 83 % 0.0 in
03:55 23.0 °F 19.8 °F 1017.8 in SW 1.6 mph 3.2 mph 82 % 0.0 in
04:05 23.5 °F 20.2 °F 1017.8 in SW 1.6 mph 3.2 mph 82 % 0.0 in
04:15 23.8 °F 20.3 °F 1017.8 in SW 1.6 mph 3.2 mph 81 % 0.0 in
04:25 24.4 °F 20.7 °F 1017.8 in SW 1.6 mph 3.2 mph 80 % 0.0 in
04:35 25.1 °F 21.0 °F 1017.8 in SSW 4.8 mph 4.8 mph 78 % 0.0 in
04:45 26.1 °F 21.6 °F 1017.8 in SW 3.2 mph 4.8 mph 76 % 0.0 in
04:55 26.6 °F 21.6 °F 1017.8 in SW 4.8 mph 9.7 mph 74 % 0.0 in
05:05 26.6 °F 21.3 °F 1017.8 in SSW 4.8 mph 8.0 mph 73 % 0.0 in
05:15 26.8 °F 21.1 °F 1017.8 in SW 4.8 mph 6.4 mph 71 % 0.0 in
05:25 27.1 °F 20.9 °F 1017.8 in SW 4.8 mph 6.4 mph 69 % 0.0 in
05:35 27.4 °F 20.7 °F 1017.8 in SW 4.8 mph 9.7 mph 67 % 0.0 in
05:45 28.1 °F 20.9 °F 1017.8 in SW 4.8 mph 12.9 mph 65 % 0.0 in
05:55 27.9 °F 20.4 °F 1017.8 in SW 4.8 mph 12.9 mph 64 % 0.0 in
06:05 28.2 °F 20.2 °F 1017.8 in WSW 11.3 mph 12.9 mph 62 % 0.0 in
06:15 28.8 °F 20.6 °F 1016.8 in WSW 9.7 mph 9.7 mph 61 % 0.0 in
06:25 29.3 °F 20.4 °F 1016.8 in SW 8.0 mph 12.9 mph 59 % 0.0 in
06:35 29.7 °F 20.8 °F 1017.8 in WSW 4.8 mph 11.3 mph 59 % 0.0 in
06:45 29.1 °F 20.0 °F 1017.8 in SW 4.8 mph 9.7 mph 58 % 0.0 in
06:55 29.7 °F 20.3 °F 1017.8 in SW 11.3 mph 19.3 mph 57 % 0.0 in
07:05 30.0 °F 20.6 °F 1017.8 in SW 4.8 mph 9.7 mph 57 % 0.0 in
07:15 30.4 °F 20.9 °F 1017.8 in SW 8.0 mph 11.3 mph 57 % 0.0 in
12:22 30.3 °F 20.6 °F 1017.8 in SW 9.3 mph 9.3 mph 56 % 0.0 in
12:27 30.7 °F 20.6 °F 1017.8 in SW 9.3 mph 9.3 mph 55 % 0.0 in
12:32 30.4 °F 20.3 °F 1017.8 in WSW 9.7 mph 10.8 mph 55 % 0.0 in
12:37 30.5 °F 20.4 °F 1017.8 in SSW 11.1 mph 11.1 mph 55 % 0.0 in
12:42 30.5 °F 20.4 °F 1017.8 in South 20.4 mph 20.4 mph 55 % 0.0 in
12:47 30.4 °F 20.3 °F 1017.8 in SW 9.5 mph 9.5 mph 55 % 0.0 in
12:52 30.1 °F 20.1 °F 1017.8 in SW 18.5 mph 18.5 mph 55 % 0.0 in
12:57 29.9 °F 20.2 °F 1017.8 in SW 13.0 mph 13.0 mph 56 % 0.0 in
13:02 30.2 °F 20.2 °F 1017.8 in WSW 14.8 mph 14.8 mph 55 % 0.0 in
13:07 30.4 °F 20.3 °F 1017.8 in SW 17.2 mph 17.2 mph 55 % 0.0 in
13:12 29.9 °F 20.2 °F 1016.8 in WSW 16.7 mph 16.7 mph 56 % 0.0 in
13:17 30.0 °F 20.3 °F 1016.8 in South 13.0 mph 13.0 mph 56 % 0.0 in
13:22 29.9 °F 20.2 °F 1016.8 in SW 14.8 mph 14.8 mph 56 % 0.0 in
13:27 30.2 °F 20.4 °F 1016.8 in SW 11.1 mph 11.1 mph 56 % 0.0 in
13:32 30.0 °F 20.3 °F 1016.8 in SSW 9.3 mph 9.3 mph 56 % 0.0 in
13:37 29.9 °F 20.2 °F 1016.8 in SW 16.7 mph 16.7 mph 56 % 0.0 in
13:42 29.9 °F 20.2 °F 1015.8 in WSW 13.0 mph 13.0 mph 56 % 0.0 in
13:47 30.3 °F 20.3 °F 1015.8 in SW 14.0 mph 14.0 mph 55 % 0.0 in
13:52 30.1 °F 20.1 °F 1015.8 in South 13.0 mph 13.0 mph 55 % 0.0 in
13:57 30.0 °F 20.0 °F 1015.8 in SW 14.8 mph 14.8 mph 55 % 0.0 in
14:02 30.1 °F 20.1 °F 1015.8 in WSW 11.9 mph 11.9 mph 55 % 0.0 in
14:07 30.3 °F 20.3 °F 1015.8 in SSW 9.3 mph 9.3 mph 55 % 0.0 in
14:12 29.8 °F 20.1 °F 1015.8 in West 16.7 mph 16.7 mph 56 % 0.0 in
14:17 30.0 °F 20.0 °F 1015.8 in SW 14.8 mph 14.8 mph 55 % 0.0 in
14:22 30.3 °F 20.3 °F 1015.8 in SSW 5.6 mph 6.1 mph 55 % 0.0 in
14:27 30.8 °F 20.7 °F 1015.8 in SW 16.7 mph 16.7 mph 55 % 0.0 in
14:32 30.6 °F 20.6 °F 1015.8 in ESE 22.2 mph 22.2 mph 55 % 0.0 in
14:37 30.1 °F 20.1 °F 1015.8 in SW 20.4 mph 20.4 mph 55 % 0.0 in
14:42 30.1 °F 20.1 °F 1015.8 in SW 18.5 mph 18.5 mph 55 % 0.0 in
14:47 29.7 °F 20.0 °F 1015.8 in South 13.0 mph 13.0 mph 56 % 0.0 in
14:52 29.7 °F 20.0 °F 1015.8 in SW 14.8 mph 14.8 mph 56 % 0.0 in
14:57 29.9 °F 20.2 °F 1014.8 in SW 16.7 mph 16.7 mph 56 % 0.0 in
15:02 30.3 °F 20.6 °F 1014.8 in SW 9.3 mph 9.3 mph 56 % 0.0 in
15:07 30.1 °F 20.3 °F 1014.8 in SW 13.0 mph 13.0 mph 56 % 0.0 in
15:12 30.2 °F 20.4 °F 1014.8 in South 14.8 mph 14.8 mph 56 % 0.0 in
15:17 30.5 °F 20.7 °F 1014.8 in WSW 9.3 mph 9.3 mph 56 % 0.0 in
15:22 30.9 °F 20.8 °F 1015.8 in SSW 13.0 mph 13.0 mph 55 % 0.0 in
15:27 30.3 °F 20.3 °F 1015.8 in South 13.0 mph 13.0 mph 55 % 0.0 in
15:32 30.7 °F 20.6 °F 1015.8 in SW 13.0 mph 13.0 mph 55 % 0.0 in
15:37 31.0 °F 20.6 °F 1015.8 in South 16.7 mph 16.7 mph 54 % 0.0 in
15:42 30.7 °F 20.6 °F 1015.8 in SSW 11.1 mph 11.1 mph 55 % 0.0 in
15:44 30.7 °F 20.6 °F 1015.8 in South 15.8 mph 15.8 mph 55 % 0.0 in
15:49 30.5 °F 20.4 °F 1015.8 in SW 16.7 mph 16.7 mph 55 % 0.0 in
15:54 30.9 °F 20.8 °F 1015.8 in SW 10.0 mph 10.0 mph 55 % 0.0 in
15:59 31.4 °F 21.0 °F 1015.8 in WSW 11.1 mph 11.1 mph 54 % 0.0 in
16:04 30.7 °F 20.3 °F 1015.8 in SSW 20.4 mph 20.4 mph 54 % 0.0 in
16:09 30.3 °F 20.3 °F 1014.8 in SW 14.8 mph 14.8 mph 55 % 0.0 in
16:14 30.3 °F 20.3 °F 1014.8 in SW 14.8 mph 14.8 mph 55 % 0.0 in
16:19 30.6 °F 20.6 °F 1014.8 in SSE 14.8 mph 14.8 mph 55 % 0.0 in
16:24 30.8 °F 20.7 °F 1014.8 in SSW 17.2 mph 17.2 mph 55 % 0.0 in
16:29 30.3 °F 20.3 °F 1014.8 in South 9.3 mph 9.3 mph 55 % 0.0 in
16:34 31.1 °F 20.7 °F 1014.8 in SW 6.9 mph 6.9 mph 54 % 0.0 in
16:39 31.4 °F 21.0 °F 1014.8 in SW 16.1 mph 16.1 mph 54 % 0.0 in
16:44 31.1 °F 20.7 °F 1014.8 in South 9.3 mph 9.3 mph 54 % 0.0 in
16:49 31.4 °F 20.7 °F 1014.8 in SW 7.4 mph 7.4 mph 53 % 0.0 in
16:54 31.3 °F 20.6 °F 1014.8 in SSW 10.3 mph 10.3 mph 53 % 0.0 in
16:59 31.5 °F 20.8 °F 1014.8 in West 7.4 mph 7.4 mph 53 % 0.0 in
17:04 31.7 °F 20.9 °F 1014.8 in West 11.1 mph 11.1 mph 53 % 0.0 in
17:09 31.8 °F 20.7 °F 1013.8 in SSE 9.3 mph 9.3 mph 52 % 0.0 in
17:14 31.2 °F 20.2 °F 1013.8 in SW 9.3 mph 9.3 mph 52 % 0.0 in
17:19 31.6 °F 20.8 °F 1013.8 in SW 9.7 mph 9.7 mph 53 % 0.0 in
17:24 31.7 °F 20.6 °F 1013.8 in SSW 11.1 mph 11.1 mph 52 % 0.0 in
17:29 31.8 °F 20.7 °F 1013.8 in South 9.5 mph 9.5 mph 52 % 0.0 in
17:34 32.1 °F 21.3 °F 1013.8 in SW 13.0 mph 13.0 mph 53 % 0.0 in
17:39 31.9 °F 20.8 °F 1013.8 in SSW 13.0 mph 13.0 mph 52 % 0.0 in
17:44 31.8 °F 20.7 °F 1013.8 in WSW 12.2 mph 12.2 mph 52 % 0.0 in
17:49 31.8 °F 20.7 °F 1013.8 in SW 7.4 mph 7.4 mph 52 % 0.0 in
17:54 31.9 °F 20.8 °F 1013.8 in NNE 13.0 mph 13.0 mph 52 % 0.0 in
17:59 31.8 °F 20.7 °F 1013.8 in SW 3.7 mph 3.7 mph 52 % 0.0 in
18:04 31.4 °F 20.3 °F 1013.8 in South 9.3 mph 9.3 mph 52 % 0.0 in
18:09 31.5 °F 20.8 °F 1013.8 in SSW 9.3 mph 9.3 mph 53 % 0.0 in
18:14 31.4 °F 20.7 °F 1013.8 in SSW 7.4 mph 7.4 mph 53 % 0.0 in
18:19 31.3 °F 20.6 °F 1013.8 in SSW 5.6 mph 5.8 mph 53 % 0.0 in
18:24 31.0 °F 20.3 °F 1013.8 in SW 13.0 mph 13.0 mph 53 % 0.0 in
18:29 31.0 °F 20.3 °F 1013.8 in SSE 11.1 mph 11.1 mph 53 % 0.0 in
18:34 31.3 °F 20.3 °F 1013.8 in South 7.4 mph 7.4 mph 52 % 0.0 in
18:35 31.2 °F 20.2 °F 1013.8 in SW 11.9 mph 11.9 mph 52 % 0.0 in
18:40 30.9 °F 20.2 °F 1013.8 in SW 9.3 mph 9.3 mph 53 % 0.0 in
18:45 30.7 °F 20.0 °F 1013.8 in ESE 7.4 mph 7.4 mph 53 % 0.0 in
18:50 30.6 °F 19.9 °F 1013.8 in SW 11.1 mph 11.1 mph 53 % 0.0 in
18:55 30.4 °F 19.4 °F 1013.8 in SW 9.5 mph 9.5 mph 52 % 0.0 in
19:00 30.1 °F 19.2 °F 1013.8 in South 11.1 mph 11.1 mph 52 % 0.0 in
19:05 30.1 °F 19.4 °F 1013.8 in SW 9.3 mph 9.3 mph 53 % 0.0 in
19:10 30.3 °F 19.7 °F 1013.8 in SSW 13.7 mph 13.7 mph 53 % 0.0 in
19:15 30.3 °F 19.7 °F 1013.8 in SW 5.8 mph 5.8 mph 53 % 0.0 in
19:20 30.3 °F 19.7 °F 1013.8 in SW 6.9 mph 6.9 mph 53 % 0.0 in
19:25 30.4 °F 19.7 °F 1013.8 in WSW 9.3 mph 9.3 mph 53 % 0.0 in
19:30 30.3 °F 19.7 °F 1013.8 in WSW 9.3 mph 9.3 mph 53 % 0.0 in
19:35 29.9 °F 19.6 °F 1013.8 in West 9.3 mph 9.3 mph 54 % 0.0 in
19:40 29.8 °F 19.5 °F 1012.8 in SSW 7.4 mph 7.4 mph 54 % 0.0 in
19:41 29.8 °F 19.5 °F 1012.8 in SSW 10.3 mph 10.3 mph 54 % 0.0 in
19:45 24.4 °F 20.7 °F 1015.8 in ESE 4.8 mph 8.0 mph 80 % 0.0 in
19:46 29.5 °F 19.2 °F 1012.8 in SSW 9.3 mph 9.3 mph 54 % 0.0 in
19:51 29.4 °F 19.1 °F 1012.8 in SSW 9.5 mph 9.5 mph 54 % 0.0 in
19:55 24.3 °F 20.6 °F 1015.8 in East 3.2 mph 6.4 mph 80 % 0.0 in
19:56 29.3 °F 19.1 °F 1014.8 in WSW 9.3 mph 9.3 mph 54 % 0.0 in
20:01 29.2 °F 18.9 °F 1014.8 in SW 9.7 mph 9.7 mph 54 % 0.0 in
20:06 29.1 °F 18.8 °F 1014.8 in SSE 7.4 mph 7.4 mph 54 % 0.0 in
20:11 29.0 °F 18.8 °F 1013.8 in SW 7.4 mph 7.4 mph 54 % 0.0 in
20:15 24.4 °F 20.9 °F 1015.8 in East 4.8 mph 8.0 mph 81 % 0.0 in
20:16 28.8 °F 18.8 °F 1013.8 in SW 7.4 mph 7.4 mph 55 % 0.0 in
20:21 28.9 °F 18.9 °F 1013.8 in SW 9.3 mph 9.3 mph 55 % 0.0 in
20:25 24.3 °F 20.8 °F 1015.8 in East 3.2 mph 6.4 mph 81 % 0.0 in
20:26 28.7 °F 19.1 °F 1013.8 in WSW 3.9 mph 3.9 mph 56 % 0.0 in
20:31 28.7 °F 19.1 °F 1013.8 in WSW 4.2 mph 4.2 mph 56 % 0.0 in
20:35 24.4 °F 20.7 °F 1015.8 in East 1.6 mph 3.2 mph 80 % 0.0 in
20:36 28.4 °F 18.8 °F 1013.8 in SW 5.3 mph 5.3 mph 56 % 0.0 in
20:41 28.3 °F 18.7 °F 1012.8 in South 5.6 mph 5.6 mph 56 % 0.0 in
20:45 24.4 °F 20.7 °F 1016.8 in ENE 4.8 mph 6.4 mph 80 % 0.0 in
20:46 28.1 °F 18.8 °F 1012.8 in East 9.3 mph 9.3 mph 57 % 0.0 in
20:51 27.4 °F 18.9 °F 1012.8 in SE 9.3 mph 9.3 mph 60 % 0.0 in
20:55 24.4 °F 20.7 °F 1016.8 in East 3.2 mph 4.8 mph 80 % 0.0 in
20:56 27.1 °F 19.2 °F 1013.8 in ESE 16.7 mph 16.7 mph 62 % 0.0 in
21:01 26.6 °F 19.5 °F 1013.8 in ESE 14.8 mph 14.8 mph 65 % 0.0 in
21:05 24.4 °F 20.7 °F 1016.8 in East 4.8 mph 4.8 mph 80 % 0.0 in
21:06 26.5 °F 19.6 °F 1013.8 in ESE 13.0 mph 13.0 mph 66 % 0.0 in
21:11 26.4 °F 20.0 °F 1013.8 in ESE 16.7 mph 16.7 mph 68 % 0.0 in
21:15 24.3 °F 20.6 °F 1015.8 in East 4.8 mph 4.8 mph 80 % 0.0 in
21:16 26.2 °F 19.8 °F 1013.8 in SSE 11.1 mph 11.1 mph 68 % 0.0 in
21:21 26.0 °F 19.9 °F 1013.8 in ENE 11.1 mph 11.1 mph 69 % 0.0 in
21:25 24.3 °F 20.6 °F 1015.8 in East 4.8 mph 8.0 mph 80 % 0.0 in
21:26 25.8 °F 19.9 °F 1013.8 in ENE 9.3 mph 9.3 mph 70 % 0.0 in
21:31 25.7 °F 20.1 °F 1013.8 in SE 9.7 mph 9.7 mph 71 % 0.0 in
21:35 24.2 °F 20.6 °F 1015.8 in East 4.8 mph 6.4 mph 80 % 0.0 in
21:36 25.7 °F 20.1 °F 1013.8 in ESE 9.3 mph 9.3 mph 71 % 0.0 in
21:41 25.7 °F 20.1 °F 1014.8 in ESE 9.3 mph 9.3 mph 71 % 0.0 in
21:45 24.2 °F 20.7 °F 1015.8 in East 3.2 mph 6.4 mph 81 % 0.0 in
21:46 25.7 °F 20.1 °F 1014.8 in ENE 7.4 mph 7.4 mph 71 % 0.0 in
21:51 25.7 °F 20.1 °F 1014.8 in East 9.3 mph 9.3 mph 71 % 0.0 in
21:55 24.1 °F 20.6 °F 1015.8 in ENE 3.2 mph 4.8 mph 81 % 0.0 in
21:56 25.6 °F 19.9 °F 1014.8 in NNW 3.7 mph 3.7 mph 71 % 0.0 in
22:01 25.6 °F 19.9 °F 1014.8 in ESE 7.4 mph 7.4 mph 71 % 0.0 in
22:05 24.1 °F 20.6 °F 1014.8 in East 1.6 mph 6.4 mph 81 % 0.0 in
22:06 25.6 °F 19.9 °F 1014.8 in ESE 5.6 mph 5.6 mph 71 % 0.0 in
22:11 25.5 °F 19.8 °F 1015.8 in ESE 7.4 mph 7.4 mph 71 % 0.0 in
22:15 24.1 °F 20.6 °F 1015.8 in East 3.2 mph 4.8 mph 81 % 0.0 in
22:16 25.4 °F 20.0 °F 1015.8 in ENE 9.3 mph 9.3 mph 72 % 0.0 in
22:21 25.4 °F 20.0 °F 1015.8 in ENE 7.4 mph 7.4 mph 72 % 0.0 in
22:25 24.2 °F 20.7 °F 1015.8 in East 3.2 mph 4.8 mph 81 % 0.0 in
22:26 25.4 °F 20.0 °F 1015.8 in East 5.6 mph 5.6 mph 72 % 0.0 in
22:31 25.3 °F 19.9 °F 1015.8 in East 7.4 mph 7.4 mph 72 % 0.0 in
22:35 24.2 °F 20.7 °F 1015.8 in East 3.2 mph 3.2 mph 81 % 0.0 in
22:36 25.2 °F 19.8 °F 1015.8 in East 5.8 mph 5.8 mph 72 % 0.0 in
22:41 25.1 °F 19.7 °F 1015.8 in ESE 3.7 mph 3.7 mph 72 % 0.0 in
22:45 24.2 °F 20.6 °F 1015.8 in ESE 1.6 mph 4.8 mph 80 % 0.0 in
22:46 25.1 °F 19.7 °F 1015.8 in ESE 5.6 mph 5.6 mph 72 % 0.0 in
22:51 25.1 °F 19.7 °F 1015.8 in ESE 3.2 mph 3.2 mph 72 % 0.0 in
22:55 24.2 °F 20.6 °F 1015.8 in Calm   6.4 mph 80 % 0.0 in
22:56 25.0 °F 19.4 °F 1015.8 in ESE 2.3 mph 2.3 mph 71 % 0.0 in
23:01 25.0 °F 19.6 °F 1015.8 in ESE 3.7 mph 3.7 mph 72 % 0.0 in
23:05 24.2 °F 20.6 °F 1015.8 in Calm   1.6 mph 80 % 0.0 in
23:06 24.9 °F 19.7 °F 1015.8 in East 3.9 mph 3.9 mph 73 % 0.0 in
23:11 24.9 °F 20.2 °F 1014.8 in ESE 10.0 mph 10.0 mph 75 % 0.0 in
23:15 24.2 °F 20.6 °F 1015.8 in Calm   3.2 mph 80 % 0.0 in
23:16 24.8 °F 20.3 °F 1014.8 in ENE 6.4 mph 6.4 mph 76 % 0.0 in
23:21 24.8 °F 20.3 °F 1014.8 in ENE 7.4 mph 7.4 mph 76 % 0.0 in
23:25 24.2 °F 20.6 °F 1015.8 in East 1.6 mph 3.2 mph 80 % 0.0 in
23:26 24.7 °F 20.2 °F 1015.8 in ESE 7.6 mph 7.6 mph 76 % 0.0 in
23:31 24.6 °F 20.3 °F 1015.8 in NNE 5.6 mph 5.6 mph 77 % 0.0 in
23:35 24.2 °F 20.6 °F 1015.8 in East 4.8 mph 4.8 mph 80 % 0.0 in
23:36 24.6 °F 20.3 °F 1015.8 in East 3.7 mph 3.7 mph 77 % 0.0 in
23:41 24.6 °F 20.3 °F 1016.8 in East 3.7 mph 3.7 mph 77 % 0.0 in
23:45 24.1 °F 20.4 °F 1015.8 in East 3.2 mph 4.8 mph 80 % 0.0 in
23:46 24.5 °F 20.4 °F 1016.8 in ESE 9.3 mph 9.3 mph 78 % 0.0 in
23:51 24.5 °F 20.4 °F 1016.8 in NE 5.6 mph 5.6 mph 78 % 0.0 in
23:55 24.2 °F 20.3 °F 1015.8 in Calm   3.2 mph 79 % 0.0 in
23:56 24.5 °F 20.4 °F 1016.8 in NE 6.4 mph 6.4 mph 78 % 0.0 in
Meteo Sesrovires
Elogis d' Weather Underground - 3.5 mb

Guio original per  Jim McMurry - jmcmurry@mwt.net Adaptat per a la plantilla per  Wim van der Kuil - Leuven-Template.eu

Trobareu la nostra informacio del temps tambe a:

Weather Underground

AWEKAS